ドバイ の空港の天気 - METARとTAF

ドバイ国際空港 ( OMDB / DXB ) - アラブ首長国連邦 ドバイ
飛行場実況気象(Metar)
観測時間04/25 18:00 GST (04/25 14:00 UTC)
風向・風速北西 3m/s
視程10km以上
天気現象
なし
気温30℃
湿度49%
気圧1008hPa
METAROMDB 251400Z 32006KT 280V010 CAVOK 30/18 Q1008 NOSIG
過去の天気等 Google飛行場航空写真 Wunderground天気予報

過去48時間のMETAR

飛行場予報(TAF)
発表時間: 4/25 14:54 GST (4/25 10:54 UTC)
予報対象時間: 25日16時 GST ~ 26日22時 GST
風向・風速北西 8m/s
視程8,000m
なし
25日19時 GST ~ 25日21時 GST に徐々に
風向・風速南東 3m/s
26日11時 GST ~ 26日13時 GST に徐々に
風向・風速北西 7m/s
26日19時 GST ~ 26日21時 GST に徐々に
風向・風速東南東 3m/s
TAF OMDB 251054Z 2512/2618 32015KT 8000 NSC
BECMG 2515/2517 14005KT
BECMG 2607/2609 32013KT
BECMG 2615/2617 12005KT